• Join FlightAware (Why Join?)
  • Login
  • US Flag 
04:15AM EDT


 

Airport Tracker/Info


-or-


 

Live Flight TrackerFlight Track Log ✈ EJA831 ✈ 08-Dec-2013 ✈ KNEW - KGSO

Flight Track Log - Related Links

Times and Time Zones

All times are in EST time to prevent confusion due to time zone crossing. See the EJA831 flight status page for this flight to view local times or setup timezone preferences in your user account.

Time Position Orientation Groundspeed Altitude Reporting Facility
EST Latitude Longitude Course Direction KTS MPH feet Rate Location/Type
10:47AM 30.0528 -90.0297 353° North 135 155 500  Level Houston Center
10:48AM 30.0925 -90.0353 353° North 220 253 2,000 1,800 Climbing Houston Center
10:48AM 30.1122 -90.0278 18° North 324 373 2,500 2,040 Climbing Houston Center
10:49AM 30.1753 -89.9897 28° Northeast 250 288 4,900 1,740 Climbing Houston Center
10:50AM 30.2442 -89.9447 29° Northeast 268 308 6,100 2,160 Climbing Houston Center
10:51AM 30.3153 -89.8961 31° Northeast 287 330 9,400 3,120 Climbing Houston Center
10:52AM 30.3853 -89.8294 39° Northeast 310 357 12,600 2,880 Climbing Houston Center
10:53AM 30.4544 -89.7553 43° Northeast 324 373 15,300 2,040 Climbing Houston Center
10:54AM 30.5272 -89.6742 44° Northeast 351 404 16,900 1,560 Climbing Houston Center
10:55AM 30.6067 -89.5856 44° Northeast 385 443 18,500 1,800 Climbing Houston Center
10:56AM 30.6511 -89.4689 66° East 398 458 20,600 2,160 Climbing Houston Center
10:57AM 30.6894 -89.3167 74° East 406 467 22,900 1,920 Climbing Houston Center
10:58AM 30.7225 -89.1872 73° East 415 478 24,600 1,560 Climbing Houston Center
10:59AM 30.7775 -89.0631 63° Northeast 429 494 26,200 1,560 Climbing Houston Center
11:00AM 30.8419 -88.9408 58° Northeast 446 513 27,800 1,440 Climbing Houston Center
11:01AM 30.9089 -88.8200 57° Northeast 444 511 29,200 1,320 Climbing Houston Center
11:02AM 30.9767 -88.6950 58° Northeast 452 520 30,600 1,320 Climbing Houston Center
11:03AM 31.0428 -88.5722 58° Northeast 455 524 32,000 1,320 Climbing Houston Center
11:04AM 31.1117 -88.4472 57° Northeast 456 525 33,400 1,320 Climbing Houston Center
11:05AM 31.1808 -88.3242 57° Northeast 457 526 34,800 1,380 Climbing Houston Center
11:06AM 31.2508 -88.1869 59° Northeast 457 526 36,300 1,200 Climbing Houston Center
11:08AM 31.3181 -88.0600 58° Northeast 456 525 37,300 960 Climbing Houston Center
11:09AM 31.3867 -87.9331 58° Northeast 458 527 38,300 780 Climbing Houston Center
11:10AM 31.4542 -87.8033 59° Northeast 462 532 39,000 300 Climbing Houston Center
11:11AM 31.5392 -87.6431 58° Northeast 478 550 39,000  Level Houston Center
11:12AM 31.6131 -87.5019 58° Northeast 500 575 39,000  Level Houston Center
11:13AM 31.6936 -87.3581 57° Northeast 497 572 39,000  Level Atlanta Center
11:14AM 31.7533 -87.2283 62° Northeast 503 579 39,000  Level Atlanta Center
11:15AM 31.8300 -87.0869 57° Northeast 503 579 39,000  Level Atlanta Center
11:16AM 31.9044 -86.9428 59° Northeast 503 579 39,000  Level Atlanta Center
11:17AM 31.9786 -86.8031 58° Northeast 503 579 39,000  Level Atlanta Center
11:18AM 32.0636 -86.6439 58° Northeast 513 590 39,000  Level Atlanta Center
11:19AM 32.1417 -86.5017 57° Northeast 513 590 39,000  Level Atlanta Center
11:20AM 32.2006 -86.3706 62° Northeast 513 590 39,000  Level Atlanta Center
11:21AM 32.2844 -86.2281 55° Northeast 506 582 39,000  Level Atlanta Center
11:22AM 32.3722 -86.0972 52° Northeast 512 589 39,000  Level Atlanta Center
11:23AM 32.4578 -85.9689 52° Northeast 512 589 39,000  Level Atlanta Center
11:24AM 32.5625 -85.8183 50° Northeast 512 589 39,000  Level Atlanta Center
11:25AM 32.6500 -85.6844 52° Northeast 517 595 39,000  Level Atlanta Center
11:26AM 32.7392 -85.5503 52° Northeast 511 588 39,000  Level Atlanta Center
11:27AM 32.8264 -85.4133 53° Northeast 511 588 39,000  Level Atlanta Center
11:28AM 32.9156 -85.2811 51° Northeast 511 588 39,000  Level Atlanta Center
11:29AM 32.9897 -85.1731 51° Northeast 511 588 39,000  Level Atlanta Center
11:30AM 33.0953 -85.0183 51° Northeast 512 589 39,000  Level Atlanta Center
11:31AM 33.1819 -84.8828 53° Northeast 512 589 39,000  Level Atlanta Center
11:32AM 33.2703 -84.7469 52° Northeast 512 589 39,000  Level Atlanta Center
11:33AM 33.3483 -84.6258 52° Northeast 512 589 39,000  Level Atlanta Center
11:34AM 33.4364 -84.4869 53° Northeast 512 589 39,000  Level Atlanta Center
11:35AM 33.5247 -84.3478 53° Northeast 512 589 39,000  Level Atlanta Center
11:36AM 33.6125 -84.2133 52° Northeast 512 589 39,000  Level Atlanta Center
11:37AM 33.7025 -84.0689 53° Northeast 517 595 39,000  Level Atlanta Center
11:38AM 33.7922 -83.9314 52° Northeast 522 601 39,000  Level Atlanta Center
11:39AM 33.8794 -83.7936 53° Northeast 522 601 39,000  Level Atlanta Center
11:40AM 33.9689 -83.6531 52° Northeast 522 601 39,000 -480 Level Atlanta Center
11:41AM 34.0561 -83.5122 53° Northeast 527 606 38,100 -960 Descending Atlanta Center
11:42AM 34.1411 -83.3761 53° Northeast 516 594 37,100 -1,020 Descending Atlanta Center
11:43AM 34.2278 -83.2397 52° Northeast 516 594 36,100 -1,020 Descending Atlanta Center
11:44AM 34.3144 -83.0981 53° Northeast 511 588 35,100 -1,020 Descending Atlanta Center
11:45AM 34.4092 -82.9486 52° Northeast 511 588 34,100 -1,020 Descending Atlanta Center
11:46AM 34.4956 -82.8039 54° Northeast 516 594 33,100 -1,020 Descending Atlanta Center
11:47AM 34.5817 -82.6689 52° Northeast 516 594 32,100 -1,020 Descending Atlanta Center
11:48AM 34.6597 -82.5464 52° Northeast 510 587 31,100 -1,020 Descending Atlanta Center
11:49AM 34.7456 -82.4033 54° Northeast 510 587 30,100 -1,020 Descending Atlanta Center
11:50AM 34.8461 -82.2772 46° Northeast 510 587 29,100 -1,020 Descending Atlanta Center
11:51AM 34.9506 -82.1533 44° Northeast 515 593 28,100 -1,020 Descending Atlanta Center
11:52AM 35.0508 -82.0294 45° Northeast 515 593 27,100 -1,140 Descending Atlanta Center
11:53AM 35.1511 -81.9100 44° Northeast 509 586 25,900 -1,200 Descending Atlanta Center
11:54AM 35.2469 -81.7931 45° Northeast 490 564 24,800 -960 Descending Atlanta Center
11:55AM 35.3472 -81.6836 42° Northeast 484 557 24,000 -420 Descending Atlanta Center
11:56AM 35.4581 -81.5936 33° Northeast 478 550 24,000  Level Atlanta Center
11:57AM 35.5669 -81.5086 32° Northeast 472 543 24,000 -720 Level Atlanta Center
11:58AM 35.6758 -81.4208 33° Northeast 465 535 22,600 -1,620 Descending Atlanta Center
11:59AM 35.7925 -81.3275 33° Northeast 460 529 20,800 -2,160 Descending Atlanta Center
12:00PM 35.8908 -81.2475 33° Northeast 442 509 18,300 -2,340 Descending Atlanta Center
12:01PM 35.9872 -81.1672 34° Northeast 432 497 16,200 -2,400 Descending Atlanta Center
12:02PM 36.0514 -81.0622 53° Northeast 400 460 13,600 -2,400 Descending Atlanta Center
12:03PM 36.0817 -80.9325 74° East 382 440 11,500 -1,260 Descending Atlanta Center
12:04PM 36.1056 -80.8083 77° East 373 429 11,100 -300 Descending Atlanta Center
12:05PM 36.1314 -80.6839 76° East 368 423 11,000 -60 Descending Atlanta Center
12:06PM 36.1178 -80.5714 98° East 356 410 11,000 -1,200 Level Atlanta Center
12:07PM 36.0892 -80.4517 106° East 337 388 8,600 -2,400 Descending Atlanta Center
12:08PM 36.0594 -80.3606 112° Southeast 309 356 6,300 -2,400 Descending Atlanta Center
12:09PM 36.0197 -80.2853 123° Southeast 283 326 3,900 -1,620 Descending Atlanta Center
12:10PM 35.9761 -80.2283 133° Southeast 250 288 3,100 -420 Descending Atlanta Center
12:11PM 35.9494 -80.1783 123° Southeast 215 247 3,100  Level Atlanta Center
12:12PM 35.9642 -80.1136 74° East 189 217 3,100  Level Atlanta Center
12:14PM 36.1000 -79.9333 15° North  Level FlightAware Approximate
12:21PM 36.1013 -79.9411 15° North  Level Estimated
12:22PM 36.1000 -79.9333 15° North  Level FlightAware Approximate
12:23PM 36.1013 -79.9411 15° North  Level Estimated
12:24PM 36.1000 -79.9333 15° North  Level FlightAware Approximate
12:25PM 36.1013 -79.9411 15° North  Level Estimated